createdAt,value
2023-08-03T00:00:18.217Z,13.50
2023-08-03T00:01:22.356Z,16.50
2023-08-03T00:02:26.275Z,14.60
2023-08-03T00:03:30.341Z,14.10
2023-08-03T00:04:33.544Z,13.80
2023-08-03T00:05:36.881Z,14.40
2023-08-03T00:06:40.047Z,10.20
2023-08-03T00:07:43.688Z,14.60
2023-08-03T00:08:46.510Z,12.90
2023-08-03T00:09:52.266Z,13.30
2023-08-03T00:10:55.264Z,13.80
2023-08-03T00:11:59.064Z,13.45
2023-08-03T00:13:01.778Z,14.20
2023-08-03T00:14:05.709Z,14.70
2023-08-03T00:15:09.935Z,13.90
2023-08-03T00:16:13.057Z,12.50
2023-08-03T00:17:16.033Z,13.55
2023-08-03T00:18:19.983Z,13.30
2023-08-03T00:19:22.857Z,14.20
2023-08-03T00:20:25.582Z,16.10
2023-08-03T00:21:28.503Z,12.00
2023-08-03T00:22:32.306Z,16.00
2023-08-03T00:23:35.240Z,13.20
2023-08-03T00:24:38.134Z,17.09
2023-08-03T00:25:40.826Z,13.90
2023-08-03T00:26:44.033Z,13.40
2023-08-03T00:27:47.123Z,18.30
2023-08-03T00:28:50.139Z,14.70
2023-08-03T00:29:53.104Z,11.80
2023-08-03T00:30:56.020Z,12.40
2023-08-03T00:32:02.513Z,14.10
2023-08-03T00:33:05.515Z,12.10
2023-08-03T00:34:08.452Z,14.90
2023-08-03T00:35:11.622Z,13.20
2023-08-03T00:36:16.203Z,14.50
2023-08-03T00:37:19.116Z,14.70
2023-08-03T00:38:23.543Z,12.90
2023-08-03T00:39:26.794Z,14.60
2023-08-03T00:40:31.536Z,13.00
2023-08-03T00:42:47.485Z,15.20
2023-08-03T00:43:50.557Z,11.40
2023-08-03T00:44:53.220Z,15.30
2023-08-03T00:45:55.956Z,13.18
2023-08-03T00:46:59.831Z,13.10
2023-08-03T00:48:02.996Z,12.90
2023-08-03T00:50:19.824Z,13.40
2023-08-03T00:51:23.674Z,14.50
2023-08-03T00:52:27.504Z,13.60
2023-08-03T00:53:30.951Z,12.80
2023-08-03T00:54:34.542Z,11.73
2023-08-03T00:55:37.460Z,12.50
2023-08-03T00:56:43.329Z,14.30
2023-08-03T00:57:46.206Z,12.70
2023-08-03T00:58:49.051Z,12.50
2023-08-03T00:59:51.948Z,14.09
2023-08-03T01:00:55.051Z,12.40
2023-08-03T01:01:57.628Z,13.90
2023-08-03T01:03:00.934Z,14.91
2023-08-03T01:04:04.955Z,12.50
2023-08-03T01:05:08.125Z,12.10
2023-08-03T01:06:12.423Z,15.00
2023-08-03T01:07:15.195Z,13.70
2023-08-03T01:08:18.770Z,15.55
2023-08-03T01:09:21.549Z,13.80
2023-08-03T01:10:25.724Z,12.73
2023-08-03T01:12:41.831Z,13.10
2023-08-03T01:13:44.908Z,13.20
2023-08-03T01:14:48.000Z,11.60
2023-08-03T01:15:51.067Z,12.30
2023-08-03T01:16:54.115Z,13.80
2023-08-03T01:17:57.624Z,14.90
2023-08-03T01:19:00.421Z,10.10
2023-08-03T01:20:04.970Z,12.82
2023-08-03T01:21:09.066Z,14.90
2023-08-03T01:22:15.697Z,10.60
2023-08-03T01:23:18.708Z,11.80
2023-08-03T01:24:21.189Z,13.40
2023-08-03T01:25:24.401Z,15.55
2023-08-03T01:26:28.214Z,11.30
2023-08-03T01:27:31.276Z,13.70
2023-08-03T01:28:34.532Z,13.60
2023-08-03T01:29:39.626Z,13.60
2023-08-03T01:30:42.567Z,11.80
2023-08-03T01:31:45.656Z,13.64
2023-08-03T01:32:48.634Z,13.30
2023-08-03T01:33:53.237Z,12.00
2023-08-03T01:34:56.996Z,12.90
2023-08-03T01:36:00.877Z,12.60
2023-08-03T01:37:05.752Z,15.10
2023-08-03T01:38:08.343Z,13.60
2023-08-03T01:39:12.017Z,12.90
2023-08-03T01:40:15.797Z,12.00
2023-08-03T01:41:19.185Z,12.00
2023-08-03T01:42:21.854Z,12.60
2023-08-03T01:43:25.479Z,6.90
2023-08-03T01:44:29.553Z,12.82
2023-08-03T01:45:32.427Z,15.80
2023-08-03T01:46:35.417Z,9.50
2023-08-03T01:47:38.414Z,12.80
2023-08-03T01:48:42.450Z,16.00
2023-08-03T01:49:45.846Z,12.50
2023-08-03T01:50:48.870Z,12.80
2023-08-03T01:51:51.608Z,13.27
2023-08-03T01:52:54.832Z,14.00
2023-08-03T01:53:57.598Z,13.60
2023-08-03T01:55:01.229Z,11.27
2023-08-03T01:56:05.506Z,12.80
2023-08-03T01:57:08.395Z,12.80
2023-08-03T01:58:12.939Z,12.40
2023-08-03T01:59:15.897Z,14.00
2023-08-03T02:00:19.153Z,14.00
2023-08-03T02:01:23.506Z,12.50
2023-08-03T02:02:27.372Z,10.90
2023-08-03T02:03:31.181Z,13.20
2023-08-03T02:04:34.600Z,11.80
2023-08-03T02:05:39.291Z,12.10
2023-08-03T02:06:50.835Z,13.10
2023-08-03T02:07:56.521Z,13.70
2023-08-03T02:08:59.490Z,13.50
2023-08-03T02:10:04.991Z,14.50
2023-08-03T02:11:07.854Z,12.50
2023-08-03T02:12:11.639Z,12.90
2023-08-03T02:13:14.723Z,10.60
2023-08-03T02:14:18.030Z,14.10
2023-08-03T02:15:21.847Z,15.80
2023-08-03T02:16:25.866Z,14.70
2023-08-03T02:17:28.767Z,12.00
2023-08-03T02:18:32.162Z,13.80
2023-08-03T02:19:36.346Z,12.70
2023-08-03T02:20:42.155Z,11.70
2023-08-03T02:22:58.038Z,9.60
2023-08-03T02:24:00.644Z,13.30
2023-08-03T02:25:03.383Z,11.70
2023-08-03T02:26:06.506Z,14.60
2023-08-03T02:27:09.110Z,11.10
2023-08-03T02:28:12.667Z,15.10
2023-08-03T02:29:15.834Z,15.40
2023-08-03T02:30:18.821Z,15.70
2023-08-03T02:31:21.884Z,11.70
2023-08-03T02:32:27.712Z,13.20
2023-08-03T02:33:30.650Z,15.20
2023-08-03T02:34:34.331Z,14.82
2023-08-03T02:35:39.525Z,14.60
2023-08-03T02:37:55.271Z,9.90
2023-08-03T02:38:58.641Z,15.10
2023-08-03T02:40:01.720Z,12.90
2023-08-03T02:41:06.158Z,15.40
2023-08-03T02:42:09.048Z,14.70
2023-08-03T02:43:13.167Z,13.40
2023-08-03T02:44:16.639Z,13.40
2023-08-03T02:45:21.439Z,15.60
2023-08-03T02:46:24.940Z,14.30
2023-08-03T02:47:28.189Z,14.20
2023-08-03T02:49:43.675Z,15.40
2023-08-03T02:50:47.647Z,11.00
2023-08-03T02:51:51.080Z,10.40
2023-08-03T02:52:54.592Z,14.00
2023-08-03T02:53:57.410Z,12.80
2023-08-03T02:55:00.827Z,15.20
2023-08-03T02:56:04.145Z,15.10
2023-08-03T02:57:07.515Z,11.70
2023-08-03T02:58:11.469Z,15.91
2023-08-03T02:59:16.453Z,16.40
2023-08-03T03:00:21.616Z,16.10
2023-08-03T03:01:26.693Z,14.50
2023-08-03T03:02:29.904Z,14.90
2023-08-03T03:03:32.976Z,14.60
2023-08-03T03:04:35.896Z,13.60
2023-08-03T03:05:40.349Z,14.20
2023-08-03T03:06:44.084Z,13.60
2023-08-03T03:07:48.465Z,13.00
2023-08-03T03:08:51.598Z,13.10
2023-08-03T03:09:54.611Z,15.50
2023-08-03T03:10:57.670Z,15.40
2023-08-03T03:12:00.748Z,16.20
2023-08-03T03:13:06.250Z,13.40
2023-08-03T03:14:09.493Z,15.80
2023-08-03T03:15:12.594Z,14.60
2023-08-03T03:16:16.701Z,14.10
2023-08-03T03:17:19.502Z,12.80
2023-08-03T03:18:24.567Z,12.09
2023-08-03T03:19:27.862Z,11.60
2023-08-03T03:20:30.817Z,15.80
2023-08-03T03:21:34.067Z,13.10
2023-08-03T03:22:37.717Z,13.80
2023-08-03T03:23:40.371Z,12.30
2023-08-03T03:24:43.251Z,14.90
2023-08-03T03:25:46.405Z,13.82
2023-08-03T03:26:49.818Z,3.90
2023-08-03T03:27:52.692Z,13.70
2023-08-03T03:28:55.829Z,13.80
2023-08-03T03:30:01.449Z,12.00
2023-08-03T03:31:05.825Z,14.20
2023-08-03T03:32:08.615Z,14.18
2023-08-03T03:33:12.387Z,14.40
2023-08-03T03:34:16.145Z,11.80
2023-08-03T03:35:20.609Z,12.50
2023-08-03T03:36:24.599Z,10.40
2023-08-03T03:37:27.775Z,14.20
2023-08-03T03:38:31.088Z,11.50
2023-08-03T03:39:34.075Z,14.00
2023-08-03T03:40:37.120Z,14.60
2023-08-03T03:41:40.314Z,11.20
2023-08-03T03:42:44.836Z,11.80
2023-08-03T03:43:48.316Z,14.30
2023-08-03T03:44:51.271Z,13.40
2023-08-03T03:45:54.364Z,11.20
2023-08-03T03:46:58.303Z,11.80
2023-08-03T03:48:02.552Z,12.30
2023-08-03T03:49:06.312Z,11.60
2023-08-03T03:50:10.809Z,11.40
2023-08-03T03:51:14.792Z,11.10
2023-08-03T03:52:18.218Z,9.30
2023-08-03T03:53:21.181Z,11.40
2023-08-03T03:54:25.096Z,9.40
2023-08-03T03:55:29.692Z,10.60
2023-08-03T03:56:33.040Z,10.00
2023-08-03T03:57:37.543Z,11.30
2023-08-03T03:58:40.467Z,11.00
2023-08-03T03:59:43.434Z,10.00
2023-08-03T04:00:46.495Z,10.73
2023-08-03T04:01:49.739Z,9.50
2023-08-03T04:02:53.529Z,9.90
2023-08-03T04:03:58.286Z,8.20
2023-08-03T04:05:01.299Z,10.80
2023-08-03T04:06:06.343Z,8.00
2023-08-03T04:07:09.204Z,9.80
2023-08-03T04:08:12.227Z,10.55
2023-08-03T04:09:15.177Z,9.20
2023-08-03T04:11:30.280Z,5.80
2023-08-03T04:12:35.117Z,8.90
2023-08-03T04:13:38.368Z,10.00
2023-08-03T04:14:41.114Z,9.40
2023-08-03T04:15:44.950Z,8.80
2023-08-03T04:18:00.666Z,8.50
2023-08-03T04:19:07.289Z,9.00
2023-08-03T04:20:14.971Z,8.90
2023-08-03T04:21:17.914Z,8.00
2023-08-03T04:22:21.753Z,8.50
2023-08-03T04:23:24.581Z,8.80
2023-08-03T04:24:30.443Z,10.20
2023-08-03T04:25:34.388Z,8.30
2023-08-03T04:26:40.064Z,9.40
2023-08-03T04:27:45.524Z,10.10
2023-08-03T04:28:50.476Z,10.00
2023-08-03T04:29:53.396Z,8.00
2023-08-03T04:30:58.376Z,10.82
2023-08-03T04:32:01.485Z,10.80
2023-08-03T04:33:05.241Z,12.00
2023-08-03T04:34:09.960Z,8.80
2023-08-03T04:35:14.984Z,10.40
2023-08-03T04:36:20.256Z,8.20
2023-08-03T04:37:23.288Z,9.20
2023-08-03T04:38:28.066Z,8.30
2023-08-03T04:39:32.690Z,8.30
2023-08-03T04:40:36.490Z,8.40
2023-08-03T04:41:40.309Z,8.90
2023-08-03T04:42:43.149Z,10.90
2023-08-03T04:43:47.598Z,10.55
2023-08-03T04:44:51.289Z,10.70
2023-08-03T04:45:55.764Z,10.00
2023-08-03T04:46:58.808Z,6.50
2023-08-03T04:48:02.664Z,8.60
2023-08-03T04:49:08.263Z,10.40
2023-08-03T04:50:12.743Z,7.80
2023-08-03T04:51:18.792Z,8.20
2023-08-03T04:52:21.873Z,9.00
2023-08-03T04:53:26.548Z,8.80
2023-08-03T04:54:29.669Z,7.20
2023-08-03T04:55:32.620Z,8.30
2023-08-03T04:56:35.495Z,8.40
2023-08-03T04:57:39.293Z,8.20
2023-08-03T04:58:43.385Z,7.40
2023-08-03T04:59:46.739Z,7.30
2023-08-03T05:00:50.798Z,7.90
2023-08-03T05:01:54.131Z,8.00
2023-08-03T05:02:59.021Z,8.10
2023-08-03T05:04:02.860Z,6.80
2023-08-03T05:05:07.238Z,7.60
2023-08-03T05:07:22.394Z,7.60
2023-08-03T05:08:25.631Z,7.50
2023-08-03T05:09:29.032Z,7.80
2023-08-03T05:10:31.888Z,7.55
2023-08-03T05:11:34.635Z,7.70
2023-08-03T05:12:39.659Z,7.20
2023-08-03T05:13:42.957Z,7.10
2023-08-03T05:14:45.850Z,6.20
2023-08-03T05:15:48.706Z,8.30
2023-08-03T05:16:51.666Z,5.70
2023-08-03T05:17:54.622Z,7.80
2023-08-03T05:20:09.916Z,9.00
2023-08-03T05:21:12.851Z,8.30
2023-08-03T05:22:16.856Z,5.50
2023-08-03T05:23:20.591Z,7.40
2023-08-03T05:24:23.476Z,8.60
2023-08-03T05:25:26.328Z,9.09
2023-08-03T05:26:34.894Z,6.30
2023-08-03T05:27:37.605Z,8.20
2023-08-03T05:28:40.464Z,6.45
2023-08-03T05:29:44.847Z,6.27
2023-08-03T05:30:48.442Z,7.00
2023-08-03T05:31:51.078Z,6.60
2023-08-03T05:32:54.774Z,7.73
2023-08-03T05:33:57.961Z,8.50
2023-08-03T05:35:01.110Z,6.60
2023-08-03T05:36:05.757Z,7.70
2023-08-03T05:37:09.245Z,7.40
2023-08-03T05:38:13.259Z,8.70
2023-08-03T05:39:16.017Z,8.50
2023-08-03T05:40:19.196Z,7.00
2023-08-03T05:41:23.600Z,7.60
2023-08-03T05:42:27.433Z,5.80
2023-08-03T05:43:30.290Z,7.60
2023-08-03T05:44:33.552Z,5.09
2023-08-03T05:45:40.976Z,7.60
2023-08-03T05:46:43.968Z,7.70
2023-08-03T05:47:47.041Z,6.45
2023-08-03T05:48:50.976Z,6.20
2023-08-03T05:49:54.882Z,6.90
2023-08-03T05:51:00.517Z,6.90
2023-08-03T05:52:03.888Z,6.90
2023-08-03T05:53:09.870Z,7.10
2023-08-03T05:54:16.993Z,7.40
2023-08-03T05:55:19.846Z,6.80
2023-08-03T05:56:23.635Z,7.30
2023-08-03T05:57:27.427Z,7.50
2023-08-03T05:58:30.305Z,5.90
2023-08-03T05:59:33.070Z,6.00
2023-08-03T06:00:36.878Z,5.27
2023-08-03T06:01:39.796Z,6.50
2023-08-03T06:02:42.895Z,6.64
2023-08-03T06:03:45.670Z,5.80
2023-08-03T06:04:48.842Z,7.10
2023-08-03T06:05:51.594Z,7.82
2023-08-03T06:06:54.771Z,4.60
2023-08-03T06:07:57.903Z,7.00
2023-08-03T06:09:02.157Z,7.45
2023-08-03T06:10:06.755Z,6.30
2023-08-03T06:11:10.079Z,5.70
2023-08-03T06:12:14.954Z,5.30
2023-08-03T06:13:19.655Z,5.60
2023-08-03T06:14:23.150Z,6.80
2023-08-03T06:15:26.546Z,6.70
2023-08-03T06:16:29.666Z,6.50
2023-08-03T06:17:33.320Z,6.60
2023-08-03T06:18:51.241Z,6.18
2023-08-03T06:19:54.865Z,5.60
2023-08-03T06:20:57.819Z,5.40
2023-08-03T06:23:22.069Z,6.40
2023-08-03T06:24:24.786Z,2.70
2023-08-03T06:25:27.849Z,6.45
2023-08-03T06:26:37.335Z,6.70
2023-08-03T06:27:40.576Z,5.10
2023-08-03T06:28:44.604Z,5.60
2023-08-03T06:29:49.457Z,5.20
2023-08-03T06:30:53.323Z,5.50
2023-08-03T06:31:56.235Z,6.70
2023-08-03T06:33:00.164Z,5.20
2023-08-03T06:34:03.601Z,5.20
2023-08-03T06:35:08.469Z,5.30
2023-08-03T06:36:26.102Z,6.70
2023-08-03T06:37:30.106Z,6.10
2023-08-03T06:38:33.271Z,5.70
2023-08-03T06:39:35.823Z,5.50
2023-08-03T06:40:42.183Z,6.00
2023-08-03T06:41:46.249Z,4.90
2023-08-03T06:42:50.901Z,6.40
2023-08-03T06:45:08.256Z,4.80
2023-08-03T06:46:11.236Z,5.60
2023-08-03T06:47:14.148Z,6.30
2023-08-03T06:48:16.946Z,5.82
2023-08-03T06:49:19.821Z,4.90
2023-08-03T06:50:22.665Z,2.73
2023-08-03T06:51:26.782Z,4.70
2023-08-03T06:52:30.366Z,4.70
2023-08-03T06:53:33.280Z,5.90
2023-08-03T06:54:37.052Z,7.20
2023-08-03T06:55:40.000Z,5.40
2023-08-03T06:56:43.398Z,5.00
2023-08-03T06:57:46.255Z,5.50
2023-08-03T06:58:48.905Z,6.09
2023-08-03T06:59:51.666Z,5.64
2023-08-03T07:00:54.610Z,4.90
2023-08-03T07:01:58.657Z,5.27
2023-08-03T07:03:02.406Z,5.00
2023-08-03T07:04:05.753Z,5.10
2023-08-03T07:05:08.717Z,5.00
2023-08-03T07:06:13.561Z,4.80
2023-08-03T07:07:16.638Z,5.20
2023-08-03T07:08:19.402Z,5.30
2023-08-03T07:09:23.947Z,6.10
2023-08-03T07:10:29.599Z,5.00
2023-08-03T07:11:33.030Z,7.40
2023-08-03T07:12:36.158Z,5.20
2023-08-03T07:13:39.669Z,5.50
2023-08-03T07:14:42.624Z,5.60
2023-08-03T07:15:46.833Z,6.00
2023-08-03T07:16:50.041Z,5.20
2023-08-03T07:17:54.614Z,6.70
2023-08-03T07:18:57.442Z,5.10
2023-08-03T07:20:00.833Z,5.27
2023-08-03T07:21:04.929Z,3.90
2023-08-03T07:22:09.661Z,4.90
2023-08-03T07:23:12.516Z,5.10
2023-08-03T07:24:15.817Z,4.18
2023-08-03T07:25:19.199Z,5.10
2023-08-03T07:26:23.911Z,4.40
2023-08-03T07:27:27.192Z,5.60
2023-08-03T07:28:30.073Z,4.90
2023-08-03T07:29:33.468Z,5.50
2023-08-03T07:30:37.582Z,5.70
2023-08-03T07:31:40.719Z,5.10
2023-08-03T07:32:43.741Z,4.90
2023-08-03T07:33:47.747Z,6.00
2023-08-03T07:34:51.847Z,6.00
2023-08-03T07:35:54.909Z,5.70
2023-08-03T07:36:58.610Z,5.20
2023-08-03T07:38:01.985Z,6.00
2023-08-03T07:39:05.186Z,6.20
2023-08-03T07:40:09.434Z,5.80
2023-08-03T07:41:12.390Z,6.20
2023-08-03T07:42:16.489Z,4.30
2023-08-03T07:43:19.290Z,4.90
2023-08-03T07:44:22.759Z,5.27
2023-08-03T07:46:31.224Z,6.00
2023-08-03T07:47:34.917Z,5.60
2023-08-03T07:48:37.854Z,5.40
2023-08-03T07:49:40.848Z,6.50
2023-08-03T07:50:45.618Z,5.40
2023-08-03T07:51:50.317Z,5.80
2023-08-03T07:52:54.412Z,6.20
2023-08-03T07:53:57.067Z,5.70
2023-08-03T07:54:59.844Z,3.36
2023-08-03T07:56:04.978Z,5.36
2023-08-03T07:57:09.806Z,5.40
2023-08-03T07:58:13.492Z,5.00
2023-08-03T07:59:16.161Z,3.70
2023-08-03T08:00:19.313Z,4.73
2023-08-03T08:01:23.462Z,4.70
2023-08-03T08:02:26.519Z,6.20
2023-08-03T08:03:30.684Z,4.40
2023-08-03T08:04:35.531Z,5.10
2023-08-03T08:05:38.537Z,5.60
2023-08-03T08:06:41.630Z,5.60
2023-08-03T08:07:45.585Z,4.00
2023-08-03T08:08:49.141Z,4.80
2023-08-03T08:09:55.138Z,5.50
2023-08-03T08:11:10.519Z,5.10
2023-08-03T08:12:04.633Z,3.60
2023-08-03T08:13:08.571Z,4.00
2023-08-03T08:14:11.736Z,3.70
2023-08-03T08:15:14.980Z,5.30
2023-08-03T08:16:19.845Z,5.50
2023-08-03T08:17:23.993Z,5.60
2023-08-03T08:18:30.599Z,5.30
2023-08-03T08:19:33.450Z,5.90
2023-08-03T08:20:36.374Z,5.80
2023-08-03T08:21:41.157Z,4.73
2023-08-03T08:22:45.597Z,4.60
2023-08-03T08:23:48.156Z,5.10
2023-08-03T08:24:52.172Z,5.27
2023-08-03T08:25:55.859Z,5.80
2023-08-03T08:26:58.956Z,4.00
2023-08-03T08:28:03.324Z,5.20
2023-08-03T08:29:08.370Z,4.70
2023-08-03T08:30:11.555Z,6.10
2023-08-03T08:31:14.963Z,5.10
2023-08-03T08:32:18.783Z,5.00
2023-08-03T08:33:22.073Z,6.10
2023-08-03T08:34:25.597Z,5.70
2023-08-03T08:35:28.746Z,4.60
2023-08-03T08:36:31.773Z,5.80
2023-08-03T08:37:36.797Z,5.20
2023-08-03T08:38:39.617Z,5.20
2023-08-03T08:39:42.595Z,5.18
2023-08-03T08:40:47.285Z,4.90
2023-08-03T08:41:50.211Z,4.60
2023-08-03T08:42:54.548Z,6.30
2023-08-03T08:43:57.352Z,6.00
2023-08-03T08:45:00.439Z,5.18
2023-08-03T08:46:03.284Z,4.00
2023-08-03T08:47:08.103Z,5.82
2023-08-03T08:50:22.998Z,6.10
2023-08-03T08:53:15.101Z,3.50
2023-08-03T09:00:11.802Z,5.80
2023-08-03T09:01:14.720Z,6.00
2023-08-03T09:02:18.273Z,5.70
2023-08-03T09:03:21.454Z,5.50
2023-08-03T09:04:33.821Z,5.60
2023-08-03T09:06:46.895Z,3.90
2023-08-03T09:08:03.770Z,3.70
2023-08-03T09:09:07.439Z,5.60
2023-08-03T09:10:11.858Z,5.20
2023-08-03T09:11:14.861Z,5.40
2023-08-03T09:12:25.171Z,4.90
2023-08-03T09:13:38.333Z,5.30
2023-08-03T09:14:51.014Z,5.40
2023-08-03T09:15:54.460Z,6.70
2023-08-03T09:17:17.577Z,5.40
2023-08-03T09:18:28.132Z,4.60
2023-08-03T09:19:37.895Z,5.40
2023-08-03T09:20:44.755Z,5.20
2023-08-03T09:25:39.170Z,4.90
2023-08-03T09:28:43.899Z,5.70
2023-08-03T09:29:46.744Z,5.80
2023-08-03T09:37:56.129Z,6.60
2023-08-03T09:40:27.532Z,5.70
2023-08-03T09:42:49.398Z,5.10
2023-08-03T09:45:33.215Z,6.00
2023-08-03T09:46:13.844Z,4.30
2023-08-03T09:47:16.697Z,4.30
2023-08-03T09:48:19.753Z,5.18
2023-08-03T09:49:23.574Z,4.50
2023-08-03T09:50:26.433Z,5.00
2023-08-03T09:51:30.354Z,4.80
2023-08-03T09:53:42.881Z,5.40
2023-08-03T09:56:07.636Z,5.80
2023-08-03T09:58:20.330Z,4.90
2023-08-03T09:59:26.637Z,2.30
2023-08-03T10:00:30.291Z,4.80
2023-08-03T10:01:35.816Z,6.30
2023-08-03T10:04:05.671Z,4.80
2023-08-03T10:05:08.673Z,4.20
2023-08-03T10:06:14.011Z,4.70
2023-08-03T10:07:17.670Z,6.20
2023-08-03T10:09:48.968Z,4.00
2023-08-03T10:10:52.046Z,4.80
2023-08-03T10:11:54.749Z,5.00
2023-08-03T10:13:00.943Z,4.50
2023-08-03T10:14:05.384Z,4.40
2023-08-03T10:15:09.970Z,4.90
2023-08-03T10:16:16.390Z,5.10
2023-08-03T10:17:19.861Z,4.20
2023-08-03T10:18:38.182Z,5.30
2023-08-03T10:19:31.109Z,4.40
2023-08-03T10:20:39.437Z,5.50
2023-08-03T10:21:42.489Z,6.60
2023-08-03T10:24:25.690Z,4.40
2023-08-03T10:25:30.470Z,5.40
2023-08-03T10:26:33.398Z,5.40
2023-08-03T10:27:37.361Z,5.36
2023-08-03T10:28:45.238Z,5.80
2023-08-03T10:29:58.759Z,4.80
2023-08-03T10:31:21.277Z,4.50
2023-08-03T10:32:27.640Z,5.60
2023-08-03T10:33:56.328Z,7.00
2023-08-03T10:36:46.149Z,6.90
2023-08-03T10:37:50.561Z,5.40
2023-08-03T10:39:10.311Z,6.10
2023-08-03T10:40:24.464Z,5.10
2023-08-03T10:41:28.340Z,4.90
2023-08-03T10:42:33.403Z,4.30
2023-08-03T10:43:36.666Z,3.70
2023-08-03T10:44:39.345Z,6.40
2023-08-03T10:45:42.300Z,6.09
2023-08-03T10:46:49.762Z,6.40
2023-08-03T10:47:54.918Z,5.80
2023-08-03T10:48:58.764Z,6.20
2023-08-03T10:50:03.393Z,6.80
2023-08-03T10:51:06.959Z,7.90
2023-08-03T10:53:32.493Z,4.70
2023-08-03T10:54:35.402Z,5.00
2023-08-03T10:55:38.390Z,4.10
2023-08-03T10:56:42.016Z,5.30
2023-08-03T10:57:45.123Z,4.90
2023-08-03T10:58:49.213Z,5.50
2023-08-03T10:59:54.346Z,6.70
2023-08-03T11:00:57.412Z,6.90
2023-08-03T11:02:02.481Z,6.09
2023-08-03T11:03:06.545Z,7.40
2023-08-03T11:04:09.875Z,8.90
2023-08-03T11:05:13.094Z,14.50
2023-08-03T11:06:18.121Z,13.00
2023-08-03T11:07:33.787Z,9.00
2023-08-03T11:08:38.547Z,7.70
2023-08-03T11:09:42.113Z,12.10
2023-08-03T11:10:45.195Z,8.10
2023-08-03T11:11:48.926Z,7.20
2023-08-03T11:12:53.474Z,9.00
2023-08-03T11:13:58.051Z,8.80
2023-08-03T11:15:02.497Z,8.40
2023-08-03T11:16:07.164Z,16.30
2023-08-03T11:17:12.125Z,12.80
2023-08-03T11:18:17.220Z,9.10
2023-08-03T11:19:20.269Z,7.00
2023-08-03T11:20:24.309Z,10.90
2023-08-03T11:21:27.201Z,11.70
2023-08-03T11:22:32.423Z,8.18
2023-08-03T11:23:36.011Z,10.10
2023-08-03T11:24:40.761Z,9.40
2023-08-03T11:25:46.076Z,9.70
2023-08-03T11:26:49.346Z,8.70
2023-08-03T11:27:54.120Z,11.40
2023-08-03T11:28:57.001Z,8.80
2023-08-03T11:29:59.963Z,9.10
2023-08-03T11:31:02.616Z,9.27
2023-08-03T11:32:06.577Z,9.82
2023-08-03T11:33:15.064Z,8.60
2023-08-03T11:34:19.968Z,7.80
2023-08-03T11:35:24.092Z,9.30
2023-08-03T11:36:27.256Z,9.40
2023-08-03T11:38:48.717Z,9.80
2023-08-03T11:39:52.005Z,9.80
2023-08-03T11:40:56.908Z,9.60
2023-08-03T11:41:59.726Z,10.10
2023-08-03T11:43:03.382Z,9.64
2023-08-03T11:44:09.243Z,10.50
2023-08-03T11:45:12.662Z,13.30
2023-08-03T11:46:18.374Z,8.90
2023-08-03T11:47:21.104Z,9.30
2023-08-03T11:48:25.465Z,9.90
2023-08-03T11:49:30.725Z,9.00
2023-08-03T11:50:34.299Z,10.00
2023-08-03T11:51:38.617Z,9.30
2023-08-03T11:52:41.324Z,9.50
2023-08-03T11:53:45.783Z,8.18
2023-08-03T11:54:49.663Z,10.00
2023-08-03T11:55:52.705Z,9.20
2023-08-03T11:56:56.661Z,7.10
2023-08-03T11:58:12.282Z,10.80
2023-08-03T12:00:31.373Z,11.40
2023-08-03T12:01:47.408Z,8.50
2023-08-03T12:02:50.818Z,10.80
2023-08-03T12:04:14.421Z,10.30
2023-08-03T12:05:18.292Z,8.70
2023-08-03T12:07:31.024Z,9.70
2023-08-03T12:08:46.013Z,13.70
2023-08-03T12:09:50.314Z,11.20
2023-08-03T12:11:05.289Z,12.20
2023-08-03T12:12:10.555Z,13.50
2023-08-03T12:13:13.405Z,17.50
2023-08-03T12:14:17.963Z,20.60
2023-08-03T12:15:25.944Z,21.00
2023-08-03T12:16:26.362Z,29.60
2023-08-03T12:17:31.947Z,33.80
2023-08-03T12:19:45.879Z,25.90
2023-08-03T12:22:04.907Z,29.90
2023-08-03T12:23:09.001Z,19.50
2023-08-03T12:24:13.006Z,20.40
2023-08-03T12:25:16.683Z,18.40
2023-08-03T12:26:19.535Z,17.00
2023-08-03T12:28:42.999Z,20.00
2023-08-03T12:29:47.613Z,18.30
2023-08-03T12:30:50.647Z,14.60
2023-08-03T12:31:53.337Z,19.10
2023-08-03T12:32:57.014Z,16.82
2023-08-03T12:34:00.817Z,19.70
2023-08-03T12:35:05.092Z,17.70
2023-08-03T12:36:09.213Z,18.90
2023-08-03T12:37:13.865Z,18.80
2023-08-03T12:38:17.321Z,16.60
2023-08-03T12:39:21.338Z,12.60
2023-08-03T12:40:24.272Z,19.30
2023-08-03T12:41:27.562Z,17.00
2023-08-03T12:42:30.655Z,18.20
2023-08-03T12:43:33.315Z,16.70
2023-08-03T12:44:36.312Z,13.09
2023-08-03T12:45:39.941Z,11.40
2023-08-03T12:46:44.407Z,13.60
2023-08-03T12:47:52.098Z,11.00
2023-08-03T12:48:55.342Z,6.50
2023-08-03T12:49:59.370Z,10.10
2023-08-03T12:51:02.427Z,10.00
2023-08-03T12:52:06.171Z,12.20
2023-08-03T12:53:10.158Z,9.40
2023-08-03T12:54:13.186Z,12.70
2023-08-03T12:55:16.330Z,14.10
2023-08-03T12:56:20.313Z,12.50
2023-08-03T12:57:23.441Z,11.70
2023-08-03T12:58:26.213Z,11.80
2023-08-03T12:59:28.953Z,10.18
2023-08-03T13:00:32.710Z,9.30
2023-08-03T13:01:35.757Z,11.20
2023-08-03T13:02:42.053Z,6.30
2023-08-03T13:03:44.892Z,12.00
2023-08-03T13:06:01.929Z,9.80
2023-08-03T13:07:10.865Z,8.70
2023-08-03T13:08:11.855Z,9.40
2023-08-03T13:09:15.867Z,9.70
2023-08-03T13:10:21.717Z,9.50
2023-08-03T13:11:24.593Z,10.00
2023-08-03T13:12:29.619Z,8.90
2023-08-03T13:13:33.455Z,10.20
2023-08-03T13:14:39.841Z,7.60
2023-08-03T13:15:43.614Z,10.50
2023-08-03T13:16:49.686Z,3.00
2023-08-03T13:17:56.497Z,10.80
2023-08-03T13:18:59.826Z,9.10
2023-08-03T13:20:03.236Z,8.60
2023-08-03T13:21:06.350Z,8.40
2023-08-03T13:22:09.193Z,8.60
2023-08-03T13:23:13.606Z,9.73
2023-08-03T13:24:18.455Z,8.50
2023-08-03T13:25:21.205Z,8.50
2023-08-03T13:26:24.036Z,8.73
2023-08-03T13:27:28.092Z,8.09
2023-08-03T13:28:31.065Z,8.50
2023-08-03T13:29:34.352Z,8.55
2023-08-03T13:30:37.444Z,8.20
2023-08-03T13:31:41.514Z,8.20
2023-08-03T13:32:46.060Z,7.70
2023-08-03T13:33:49.051Z,7.30
2023-08-03T13:34:52.122Z,8.40
2023-08-03T13:35:55.209Z,8.30
2023-08-03T13:36:58.740Z,9.30
2023-08-03T13:38:03.609Z,23.40
2023-08-03T13:39:06.742Z,31.10
2023-08-03T13:40:11.351Z,25.10
2023-08-03T13:41:15.572Z,27.30
2023-08-03T13:42:19.560Z,24.30
2023-08-03T13:43:22.417Z,32.80
2023-08-03T13:44:25.177Z,38.73
2023-08-03T13:45:28.008Z,42.73
2023-08-03T13:46:31.474Z,50.64
2023-08-03T13:47:34.367Z,49.30
2023-08-03T13:48:39.279Z,51.90
2023-08-03T13:49:42.562Z,55.30
2023-08-03T13:50:46.052Z,58.60
2023-08-03T13:51:48.935Z,62.82
2023-08-03T13:52:52.246Z,59.30
2023-08-03T13:53:57.104Z,51.80
2023-08-03T13:55:01.538Z,49.90
2023-08-03T13:56:04.732Z,57.50
2023-08-03T13:57:09.158Z,57.09
2023-08-03T13:58:28.962Z,56.20
2023-08-03T13:59:17.345Z,61.60
2023-08-03T14:00:22.006Z,58.90
2023-08-03T14:01:36.681Z,65.60
2023-08-03T14:03:36.098Z,60.60
2023-08-03T14:04:40.128Z,62.30
2023-08-03T14:05:45.126Z,63.50
2023-08-03T14:07:56.650Z,61.10
2023-08-03T14:12:17.953Z,53.10
2023-08-03T14:13:21.007Z,62.00
2023-08-03T14:18:48.686Z,46.10
2023-08-03T14:19:51.650Z,37.90
2023-08-03T14:20:59.791Z,36.70
2023-08-03T14:22:03.714Z,29.70
2023-08-03T14:23:06.635Z,22.80
2023-08-03T14:24:11.933Z,26.55
2023-08-03T14:26:22.970Z,25.90
2023-08-03T14:27:27.662Z,29.50
2023-08-03T14:29:39.269Z,31.90
2023-08-03T14:30:43.785Z,29.80
2023-08-03T14:31:47.188Z,33.00
2023-08-03T14:32:50.855Z,30.00
2023-08-03T14:33:57.494Z,22.40
2023-08-03T14:37:17.607Z,20.10
2023-08-03T14:38:20.644Z,22.30
2023-08-03T14:39:23.803Z,26.70
2023-08-03T14:40:27.250Z,25.00
2023-08-03T14:41:30.806Z,24.90
2023-08-03T14:42:35.033Z,22.40
2023-08-03T14:43:43.866Z,22.90
2023-08-03T14:44:43.155Z,20.00
2023-08-03T14:45:54.295Z,25.00
2023-08-03T14:47:01.042Z,20.50
2023-08-03T14:48:06.325Z,22.70
2023-08-03T14:49:11.180Z,19.70
2023-08-03T14:52:25.596Z,15.30
2023-08-03T14:53:29.375Z,19.10
2023-08-03T14:54:32.313Z,18.80
2023-08-03T14:56:41.304Z,21.00
2023-08-03T14:57:44.591Z,18.00
2023-08-03T14:58:52.145Z,16.10
2023-08-03T14:59:53.848Z,15.20
2023-08-03T15:00:57.187Z,17.50
2023-08-03T15:02:02.365Z,12.00
2023-08-03T15:03:07.103Z,12.10
2023-08-03T15:04:12.281Z,13.30
2023-08-03T15:05:15.534Z,12.20
2023-08-03T15:06:19.936Z,15.70
2023-08-03T15:07:24.138Z,17.10
2023-08-03T15:08:26.904Z,17.30
2023-08-03T15:09:29.884Z,12.90
2023-08-03T15:10:34.530Z,14.20
2023-08-03T15:11:38.628Z,13.80
2023-08-03T15:13:58.945Z,11.40
2023-08-03T15:17:37.309Z,14.60
2023-08-03T15:18:32.583Z,10.60
2023-08-03T15:20:42.065Z,11.70
2023-08-03T15:21:47.326Z,11.00
2023-08-03T15:24:09.148Z,10.70
2023-08-03T15:25:13.723Z,9.20
2023-08-03T15:26:22.908Z,11.70
2023-08-03T15:27:25.863Z,9.80